Time;durP1;ratioP1;P1;durP2;ratioP2;P2;SDS_P1;SDS_P2;PMS_P1;PMS_P2;Temp;Humidity;BMP_temperature;BMP_pressure;BME280_temperature;BME280_humidity;BME280_pressure;Samples;Min_cycle;Max_cycle;Signal;HPM_P1;HPM_P2
2022/08/29 00:00:07;;;;;;;13.93;12.03;;;;;;;23.15;66.77;94846.44;5051839;28;20920;-83
2022/08/29 00:02:34;;;;;;;14.07;10.87;;;;;;;23.18;66.98;94837.19;5051767;28;20537;-83
2022/08/29 00:05:01;;;;;;;11.60;10.50;;;;;;;23.17;66.57;94844.38;5051462;28;20806;-83
2022/08/29 00:07:29;;;;;;;12.40;11.20;;;;;;;23.21;66.75;94847.47;5051744;28;20485;-83
2022/08/29 00:09:56;;;;;;;16.73;12.33;;;;;;;23.18;67.26;94851.38;5051717;28;20437;-83
2022/08/29 00:12:23;;;;;;;14.87;12.80;;;;;;;23.10;67.45;94848.91;5051625;28;20445;-83
2022/08/29 00:14:50;;;;;;;13.07;11.77;;;;;;;23.03;67.93;94844.59;5051511;28;20449;-83
2022/08/29 00:17:16;;;;;;;16.00;12.07;;;;;;;22.82;68.60;94845.63;5051545;28;20445;-83
2022/08/29 00:19:43;;;;;;;12.23;10.90;;;;;;;22.82;68.58;94846.47;5051603;28;20450;-83
2022/08/29 00:22:10;;;;;;;15.30;11.77;;;;;;;22.86;68.61;94841.53;5051868;28;20446;-83
2022/08/29 00:24:38;;;;;;;13.67;12.10;;;;;;;22.82;68.29;94845.63;5051547;28;20782;-83
2022/08/29 00:27:05;;;;;;;18.00;11.63;;;;;;;22.82;68.51;94835.75;5051331;28;20477;-83
2022/08/29 00:29:32;;;;;;;13.43;12.10;;;;;;;22.69;69.04;94838.41;5051244;28;20492;-83
2022/08/29 00:31:59;;;;;;;13.57;12.10;;;;;;;22.65;69.02;94839.03;5052960;28;20452;-83
2022/08/29 00:34:25;;;;;;;14.67;12.10;;;;;;;22.58;69.24;94843.56;5055502;28;20806;-83
2022/08/29 00:36:53;;;;;;;14.83;11.80;;;;;;;22.59;69.53;94840.69;5054960;28;20437;-83
2022/08/29 00:39:20;;;;;;;15.77;12.83;;;;;;;22.66;69.36;94838.81;5055011;28;20459;-83
2022/08/29 00:41:48;;;;;;;13.73;12.20;;;;;;;22.51;69.64;94838.19;5055248;28;20449;-83
2022/08/29 00:44:16;;;;;;;15.83;11.70;;;;;;;22.54;69.58;94832.44;5055251;28;20446;-83
2022/08/29 00:46:47;;;;;;;13.40;11.63;;;;;;;22.44;69.75;94826.66;5054819;28;20925;-84
2022/08/29 00:49:26;;;;;;;14.03;11.50;;;;;;;22.49;69.57;94832.22;5054659;28;20485;-83
2022/08/29 00:51:54;;;;;;;14.37;12.00;;;;;;;22.53;69.48;94830.78;5054841;28;20442;-83
2022/08/29 00:54:22;;;;;;;13.33;11.90;;;;;;;22.56;69.66;94835.75;5054687;28;20536;-83
2022/08/29 00:56:51;;;;;;;15.53;11.57;;;;;;;22.48;69.83;94833.25;5054641;28;20834;-83
2022/08/29 00:59:21;;;;;;;16.03;12.83;;;;;;;22.50;69.93;94821.31;5054978;28;20488;-83
2022/08/29 01:01:48;;;;;;;13.80;12.43;;;;;;;22.48;70.01;94827.91;5054697;28;20850;-83
2022/08/29 01:04:15;;;;;;;13.70;12.23;;;;;;;22.32;70.60;94828.31;5054815;28;20843;-83
2022/08/29 01:06:43;;;;;;;20.30;13.03;;;;;;;22.29;70.52;94828.72;5055131;28;20449;-83
2022/08/29 01:09:11;;;;;;;12.73;11.43;;;;;;;22.31;70.69;94832.03;5054539;28;20489;-83
2022/08/29 01:14:27;;;;;;;13.80;12.47;;;;;;;22.16;71.44;94830.34;5038594;28;20567;-83
2022/08/29 01:16:57;;;;;;;14.53;13.03;;;;;;;22.06;72.14;94829.09;5054268;28;20483;-83
2022/08/29 01:19:36;;;;;;;13.30;11.97;;;;;;;22.11;71.86;94835.47;5054377;28;20454;-83
2022/08/29 01:22:13;;;;;;;12.40;11.20;;;;;;;22.16;71.82;94843.69;5054378;28;20523;-83
2022/08/29 01:24:49;;;;;;;16.53;12.50;;;;;;;22.15;72.15;94838.56;5054698;28;20453;-83
2022/08/29 01:27:17;;;;;;;12.80;11.60;;;;;;;22.20;72.02;94834.25;5054250;28;20894;-83
2022/08/29 01:29:45;;;;;;;15.83;12.00;;;;;;;22.27;71.98;94836.13;5035149;28;20474;-83
2022/08/29 01:32:12;;;;;;;13.87;12.40;;;;;;;22.15;72.03;94834.03;5053844;28;20500;-83
2022/08/29 01:34:40;;;;;;;17.60;14.13;;;;;;;22.03;73.11;94838.31;5054285;28;20525;-83
2022/08/29 01:37:10;;;;;;;13.80;12.53;;;;;;;21.91;73.75;94837.22;5054229;28;20824;-83
2022/08/29 01:39:39;;;;;;;19.07;13.10;;;;;;;21.93;74.08;94837.84;5053784;28;20442;-83
2022/08/29 01:42:10;;;;;;;19.43;12.90;;;;;;;21.97;74.34;94847.09;5053718;28;20928;-83
2022/08/29 01:44:38;;;;;;;24.10;13.60;;;;;;;21.90;74.46;94835.56;5054079;28;20484;-83
2022/08/29 01:47:06;;;;;;;16.13;13.20;;;;;;;21.90;74.37;94846.25;5053866;28;20453;-83
2022/08/29 01:49:34;;;;;;;18.10;12.80;;;;;;;21.83;74.89;94846.25;5053815;28;20493;-83
2022/08/29 01:52:01;;;;;;;23.80;13.40;;;;;;;21.86;75.01;94842.34;5053585;28;20940;-83
2022/08/29 01:54:28;;;;;;;15.07;13.47;;;;;;;21.81;75.42;94848.31;5053584;28;20453;-83
2022/08/29 01:56:55;;;;;;;18.13;12.87;;;;;;;21.85;75.32;94844.19;5053646;28;20453;-83
2022/08/29 01:59:26;;;;;;;15.60;13.80;;;;;;;21.82;75.59;94843.78;5053450;28;20457;-83
2022/08/29 02:01:58;;;;;;;14.80;13.20;;;;;;;21.75;74.52;94838.41;5053577;28;20454;-83
2022/08/29 02:04:24;;;;;;;20.80;12.63;;;;;;;21.67;74.17;94848.44;5053518;28;20860;-83
2022/08/29 02:06:51;;;;;;;15.40;12.93;;;;;;;21.65;74.09;94846.78;5053754;28;20441;-83
2022/08/29 02:09:18;;;;;;;13.50;11.87;;;;;;;21.70;74.01;94846.22;5053501;28;20481;-83
2022/08/29 02:11:45;;;;;;;14.63;13.03;;;;;;;21.71;74.09;94839.03;5053280;28;20929;-83
2022/08/29 02:14:12;;;;;;;14.17;12.77;;;;;;;21.79;73.46;94838.84;5053210;28;20442;-83
2022/08/29 02:16:41;;;;;;;17.80;11.77;;;;;;;21.84;73.54;94837.22;5053347;28;20806;-83
2022/08/29 02:19:08;;;;;;;22.80;14.70;;;;;;;21.93;73.23;94840.50;5034403;28;20504;-83
2022/08/29 02:21:34;;;;;;;15.90;12.63;;;;;;;21.94;72.83;94845.66;5053068;28;20448;-83
2022/08/29 02:24:04;;;;;;;13.40;12.03;;;;;;;21.96;72.51;94840.94;5053130;28;20457;-83
2022/08/29 02:26:31;;;;;;;19.20;12.27;;;;;;;21.96;72.27;94840.09;5052891;28;20492;-82
2022/08/29 02:28:58;;;;;;;21.63;11.10;;;;;;;22.01;72.07;94850.22;5053109;28;20481;-83
2022/08/29 02:31:25;;;;;;;14.77;11.87;;;;;;;22.00;72.00;94846.72;5053041;28;20448;-82
2022/08/29 02:33:55;;;;;;;13.73;12.17;;;;;;;22.01;71.82;94847.56;5052970;28;20441;-83
2022/08/29 02:36:22;;;;;;;14.40;12.90;;;;;;;21.99;71.84;94839.72;5052759;28;20457;-83
2022/08/29 02:38:49;;;;;;;13.30;11.97;;;;;;;22.00;71.55;94852.06;5017433;28;20454;-82
2022/08/29 02:41:16;;;;;;;19.90;12.80;;;;;;;22.02;71.47;94854.53;5052770;28;20441;-83
2022/08/29 02:43:44;;;;;;;14.33;11.93;;;;;;;21.97;71.69;94857.78;5053047;28;20457;-82
2022/08/29 02:46:14;;;;;;;14.20;12.50;;;;;;;21.91;71.48;94853.25;5052794;28;20544;-83
2022/08/29 02:48:40;;;;;;;14.57;13.07;;;;;;;21.81;71.74;94855.50;5052547;28;20572;-82
2022/08/29 02:51:09;;;;;;;14.70;11.43;;;;;;;21.80;71.96;94861.84;5052707;28;20450;-82
2022/08/29 02:53:35;;;;;;;13.13;11.73;;;;;;;21.83;72.10;94858.78;5052629;28;20935;-82
2022/08/29 02:56:03;;;;;;;16.27;12.87;;;;;;;21.84;72.34;94852.41;5052308;28;20446;-83
2022/08/29 02:58:30;;;;;;;20.73;12.80;;;;;;;21.84;72.09;94857.75;5034076;28;20430;-83
2022/08/29 03:00:57;;;;;;;13.27;12.07;;;;;;;21.77;72.41;94867.59;5052501;28;20450;-82
2022/08/29 03:03:24;;;;;;;16.40;12.30;;;;;;;21.67;72.89;94870.63;5052356;28;20437;-83
2022/08/29 03:05:51;;;;;;;14.03;10.83;;;;;;;21.58;73.13;94867.31;5052253;28;20955;-82
2022/08/29 03:08:19;;;;;;;13.03;11.60;;;;;;;21.52;73.48;94873.44;5052097;28;20452;-83
2022/08/29 03:10:46;;;;;;;12.70;11.20;;;;;;;21.45;73.26;94879.78;5052627;28;20464;-83
2022/08/29 03:13:13;;;;;;;12.20;11.10;;;;;;;21.42;73.63;94883.66;5052477;28;20932;-83
2022/08/29 03:15:41;;;;;;;15.90;11.50;;;;;;;21.40;73.76;94884.88;5052405;28;20456;-83
2022/08/29 03:18:07;;;;;;;13.70;12.07;;;;;;;21.33;73.83;94887.50;5052500;28;20559;-83
2022/08/29 03:20:36;;;;;;;22.33;11.50;;;;;;;21.33;73.92;94885.66;5017102;28;20441;-82
2022/08/29 03:23:04;;;;;;;15.67;11.60;;;;;;;21.33;73.81;94882.97;5050472;28;20945;-83
2022/08/29 03:25:32;;;;;;;16.60;12.20;;;;;;;21.33;73.98;94888.31;5048445;28;21021;-83
2022/08/29 03:27:59;;;;;;;15.90;11.27;;;;;;;21.36;73.88;94892.44;5052498;28;20824;-82
2022/08/29 03:30:27;;;;;;;25.20;14.40;;;;;;;21.35;74.16;94890.78;5049259;28;20988;-83
2022/08/29 03:32:55;;;;;;;14.17;12.40;;;;;;;21.38;73.70;94895.72;5051443;28;20438;-83
2022/08/29 03:35:22;;;;;;;14.20;12.00;;;;;;;21.41;73.89;94894.53;5033027;28;20529;-82
2022/08/29 03:37:49;;;;;;;19.17;11.93;;;;;;;21.36;74.11;94888.94;5051967;28;20450;-82
2022/08/29 03:40:18;;;;;;;22.20;11.40;;;;;;;21.38;73.78;94885.06;5050288;28;20465;-83
2022/08/29 03:42:47;;;;;;;13.30;11.97;;;;;;;21.40;73.96;94893.72;5038828;28;20446;-83
2022/08/29 03:45:17;;;;;;;17.80;13.60;;;;;;;21.40;74.02;94892.91;5048053;28;20883;-83
2022/08/29 03:47:44;;;;;;;21.87;13.17;;;;;;;21.37;73.87;94891.41;5051754;28;20851;-82
2022/08/29 03:50:13;;;;;;;16.43;11.63;;;;;;;21.32;74.25;94884.00;5051963;28;20492;-82
2022/08/29 03:52:41;;;;;;;16.60;12.93;;;;;;;21.32;74.24;94892.00;5051983;28;20532;-83
2022/08/29 03:55:09;;;;;;;17.13;12.73;;;;;;;21.38;73.86;94900.25;5051697;28;20809;-82
2022/08/29 03:57:36;;;;;;;16.47;13.10;;;;;;;21.38;73.73;94903.75;5051815;28;20454;-88
2022/08/29 04:00:10;;;;;;;15.50;13.30;;;;;;;21.38;73.77;94901.06;5051706;28;20450;-82
2022/08/29 04:02:37;;;;;;;15.80;13.10;;;;;;;21.40;73.85;94900.91;5051597;28;20442;-82
2022/08/29 04:05:08;;;;;;;18.63;13.63;;;;;;;21.42;73.90;94894.34;5051797;28;20484;-84
2022/08/29 04:07:40;;;;;;;13.63;12.20;;;;;;;21.41;73.81;94890.03;5054107;28;20452;-84
2022/08/29 04:10:09;;;;;;;24.17;13.90;;;;;;;21.51;73.97;94900.34;5036802;28;20477;-84
2022/08/29 04:12:36;;;;;;;14.90;12.40;;;;;;;21.53;73.90;94899.13;5055902;28;20450;-86
2022/08/29 04:15:05;;;;;;;20.10;13.50;;;;;;;21.54;74.29;94899.94;5055740;28;20450;-84
2022/08/29 04:17:32;;;;;;;15.63;12.60;;;;;;;21.53;73.84;94904.47;5055572;28;20539;-84
2022/08/29 04:19:59;;;;;;;15.20;13.70;;;;;;;21.55;74.03;94902.41;5055414;28;20453;-83
2022/08/29 04:22:26;;;;;;;14.23;12.73;;;;;;;21.59;73.91;94905.50;5055287;28;20503;-84
2022/08/29 04:24:53;;;;;;;17.07;13.77;;;;;;;21.62;74.07;94913.94;5055705;28;20445;-84
2022/08/29 04:27:20;;;;;;;14.80;13.00;;;;;;;21.45;75.10;94911.81;5055033;28;20489;-84
2022/08/29 04:29:47;;;;;;;19.10;14.23;;;;;;;21.34;75.81;94916.66;5055056;28;20913;-84
2022/08/29 04:32:16;;;;;;;18.57;14.90;;;;;;;21.20;76.73;94914.09;5055335;28;20449;-84
2022/08/29 04:34:43;;;;;;;20.57;15.00;;;;;;;21.14;77.30;94925.53;5055156;28;20440;-84
2022/08/29 04:37:11;;;;;;;16.70;13.07;;;;;;;21.07;77.70;94927.31;5055065;28;20461;-84
2022/08/29 04:39:38;;;;;;;17.50;15.77;;;;;;;21.02;78.20;94922.56;5054986;28;20948;-84
2022/08/29 04:42:05;;;;;;;19.87;13.73;;;;;;;21.12;78.18;94923.06;5055175;28;20453;-84
2022/08/29 04:44:33;;;;;;;24.70;14.97;;;;;;;21.29;78.00;94928.94;5055222;28;20472;-84
2022/08/29 04:47:00;;;;;;;17.53;13.60;;;;;;;21.46;77.09;94930.31;5055018;28;20449;-84
2022/08/29 04:49:28;;;;;;;19.67;13.20;;;;;;;21.62;76.19;94934.50;5054846;28;20489;-84
2022/08/29 04:51:55;;;;;;;39.67;14.03;;;;;;;21.83;76.02;94942.41;5054651;28;20453;-84
2022/08/29 04:54:22;;;;;;;23.80;14.43;;;;;;;22.00;75.64;94936.75;5054685;28;20457;-84
2022/08/29 04:56:49;;;;;;;21.63;14.40;;;;;;;22.27;74.49;94943.06;5055129;28;20442;-83
2022/08/29 04:59:16;;;;;;;20.50;15.07;;;;;;;22.46;73.19;94947.63;5054661;28;20449;-84
2022/08/29 05:01:43;;;;;;;20.77;13.93;;;;;;;22.72;72.42;94946.88;5053926;28;20453;-85
2022/08/29 05:04:10;;;;;;;26.87;14.10;;;;;;;23.02;72.44;94948.16;5055449;28;20824;-84
2022/08/29 05:06:38;;;;;;;26.00;13.37;;;;;;;23.31;70.62;94941.56;5055158;28;20438;-85
2022/08/29 05:09:05;;;;;;;24.40;13.60;;;;;;;23.66;70.00;94946.69;5054933;28;20474;-84
2022/08/29 05:11:33;;;;;;;17.17;12.80;;;;;;;23.75;66.79;94945.47;5055712;28;20438;-82
2022/08/29 05:14:01;;;;;;;15.23;12.50;;;;;;;23.81;65.93;94952.66;5055078;28;20873;-84
2022/08/29 05:16:29;;;;;;;14.80;12.23;;;;;;;23.72;65.70;94945.88;5056157;28;20487;-83
2022/08/29 05:18:57;;;;;;;17.70;12.93;;;;;;;23.62;65.87;94950.84;5055117;28;20521;-82
2022/08/29 05:21:26;;;;;;;14.47;12.70;;;;;;;23.57;66.36;94951.47;5055343;28;20450;-83
2022/08/29 05:23:56;;;;;;;19.77;12.87;;;;;;;23.53;66.68;94955.56;5056162;28;20461;-85
2022/08/29 05:26:23;;;;;;;16.43;12.63;;;;;;;23.42;67.32;94965.06;5055286;28;20461;-84
2022/08/29 05:28:50;;;;;;;16.20;13.63;;;;;;;23.32;67.54;94953.94;5054694;28;20441;-87
2022/08/29 05:31:17;;;;;;;14.93;13.43;;;;;;;23.41;68.34;94965.25;5052515;28;20449;-87
2022/08/29 05:33:44;;;;;;;26.43;13.63;;;;;;;23.32;69.52;94953.94;5054195;28;20449;-88
2022/08/29 05:36:11;;;;;;;15.57;13.63;;;;;;;23.24;70.42;94966.72;5048584;28;20473;-88
2022/08/29 05:38:38;;;;;;;18.63;13.43;;;;;;;23.08;71.24;94968.75;5046451;28;20442;-88
2022/08/29 05:41:07;;;;;;;17.63;12.43;;;;;;;23.20;70.95;94977.00;5046389;28;20461;-81
2022/08/29 05:43:35;;;;;;;20.07;13.83;;;;;;;23.26;70.33;94962.78;5054810;28;20469;-86
2022/08/29 05:46:03;;;;;;;18.43;13.50;;;;;;;23.41;71.00;94979.47;5054227;28;20458;-85
2022/08/29 05:48:31;;;;;;;16.47;13.80;;;;;;;23.54;71.46;94975.13;5040751;28;20453;-87
2022/08/29 05:50:58;;;;;;;19.50;13.10;;;;;;;23.53;68.03;94987.72;5044720;28;20499;-86
2022/08/29 05:53:26;;;;;;;18.73;13.30;;;;;;;23.54;69.24;94983.19;5051231;28;20845;-86
2022/08/29 05:55:54;;;;;;;28.80;13.80;;;;;;;23.61;70.02;94989.38;5050178;28;21017;-86
2022/08/29 05:58:22;;;;;;;25.77;13.10;;;;;;;23.65;69.10;94974.53;5045720;28;20442;-86
2022/08/29 06:00:49;;;;;;;23.43;12.97;;;;;;;23.39;69.98;94986.06;5053295;28;20830;-84
2022/08/29 06:03:16;;;;;;;20.87;12.77;;;;;;;23.23;69.87;94981.13;5043938;28;20438;-85
2022/08/29 06:05:49;;;;;;;13.67;11.47;;;;;;;23.15;69.41;94982.16;5043930;28;20834;-86
2022/08/29 06:08:16;;;;;;;15.40;10.97;;;;;;;23.26;69.43;94981.53;5053350;28;20456;-87
2022/08/29 06:10:44;;;;;;;17.40;11.47;;;;;;;23.76;69.42;94982.78;5053308;28;20489;-88
2022/08/29 06:13:11;;;;;;;18.57;10.70;;;;;;;24.32;67.95;94981.41;5052809;28;20896;-88
2022/08/29 06:15:43;;;;;;;17.93;11.50;;;;;;;24.63;64.53;94973.41;5052127;28;20441;-87
2022/08/29 06:18:09;;;;;;;13.33;10.93;;;;;;;25.04;64.18;94982.88;5050716;28;20818;-88
2022/08/29 06:20:37;;;;;;;18.10;12.23;;;;;;;25.07;62.01;94977.09;5053652;28;20450;-87
2022/08/29 06:23:04;;;;;;;19.63;12.00;;;;;;;25.01;62.49;94986.84;5051601;28;20456;-86
2022/08/29 06:25:31;;;;;;;13.17;11.77;;;;;;;25.08;62.32;94981.41;5052424;28;20819;-85
2022/08/29 06:27:57;;;;;;;13.00;11.67;;;;;;;25.18;63.45;94971.03;5053404;28;20453;-87
2022/08/29 06:30:24;;;;;;;18.97;11.27;;;;;;;25.48;63.04;94981.94;5052110;28;20469;-88
2022/08/29 06:32:52;;;;;;;14.17;12.50;;;;;;;25.69;61.02;94983.41;5053212;28;20465;-88
2022/08/29 06:35:19;;;;;;;19.63;15.20;;;;;;;25.85;60.06;94977.47;5053637;28;20440;-87
2022/08/29 06:37:46;;;;;;;16.67;14.43;;;;;;;25.88;60.24;94977.03;5054239;28;20454;-88
2022/08/29 06:40:13;;;;;;;14.93;13.13;;;;;;;25.98;60.97;94970.31;5052765;28;20453;-88
2022/08/29 06:42:40;;;;;;;14.73;13.17;;;;;;;26.17;59.03;94980.03;5052582;28;20845;-86
2022/08/29 06:45:07;;;;;;;21.43;13.60;;;;;;;26.38;58.40;94982.31;5051785;28;20438;-87
2022/08/29 06:47:34;;;;;;;19.33;13.30;;;;;;;26.71;58.60;94991.84;5051355;28;20458;-87
2022/08/29 06:50:03;;;;;;;19.13;12.30;;;;;;;26.95;56.90;94984.66;5051402;28;20535;-87
2022/08/29 06:52:30;;;;;;;21.20;13.10;;;;;;;27.25;57.14;94981.97;5051665;28;20446;-85
2022/08/29 06:54:57;;;;;;;22.63;12.90;;;;;;;27.60;55.14;94996.31;5052014;28;20446;-87
2022/08/29 06:57:25;;;;;;;13.00;11.60;;;;;;;27.17;55.16;95000.09;5050395;28;20458;-87
2022/08/29 06:59:52;;;;;;;17.83;12.33;;;;;;;27.27;55.98;94988.78;5051990;28;20496;-88
2022/08/29 07:02:19;;;;;;;15.37;12.43;;;;;;;27.43;55.56;94992.66;5051264;28;20936;-87
2022/08/29 07:04:46;;;;;;;13.27;11.60;;;;;;;27.48;55.65;94986.59;5051230;28;20457;-87
2022/08/29 07:07:14;;;;;;;14.47;11.50;;;;;;;27.60;55.83;94996.31;5050283;28;20457;-88
2022/08/29 07:09:41;;;;;;;13.27;11.93;;;;;;;27.77;54.96;94997.31;5050310;28;20441;-87
2022/08/29 07:12:08;;;;;;;33.17;14.23;;;;;;;27.87;55.36;95006.69;5050761;28;20444;-89
2022/08/29 07:14:35;;;;;;;17.47;12.70;;;;;;;27.88;54.67;95002.94;5051188;28;20449;-88
2022/08/29 07:17:01;;;;;;;13.47;11.40;;;;;;;27.89;54.12;95001.88;5052809;28;20446;-87
2022/08/29 07:19:28;;;;;;;16.77;12.40;;;;;;;27.93;54.14;95001.19;5050205;28;20465;-89
2022/08/29 07:21:59;;;;;;;17.13;12.90;;;;;;;28.03;53.61;94997.88;5051173;28;20456;-87
2022/08/29 07:24:27;;;;;;;21.27;13.77;;;;;;;28.11;53.05;95002.94;5051234;28;20433;-87
2022/08/29 07:26:54;;;;;;;20.67;14.00;;;;;;;28.11;53.15;95010.22;5049438;28;20488;-90
2022/08/29 07:29:22;;;;;;;15.53;12.83;;;;;;;28.35;53.01;95009.16;5051271;28;20438;-90
2022/08/29 07:31:49;;;;;;;19.23;13.07;;;;;;;28.41;53.00;95010.09;5050443;28;20484;-91
2022/08/29 07:34:18;;;;;;;18.43;12.07;;;;;;;28.59;52.26;94999.09;5050800;28;20442;-88
2022/08/29 07:36:45;;;;;;;16.63;12.63;;;;;;;28.69;51.68;95000.16;5050452;28;20495;-88
2022/08/29 07:39:14;;;;;;;16.50;13.63;;;;;;;28.86;50.92;94996.69;5052413;28;20811;-88
2022/08/29 07:41:44;;;;;;;21.67;12.67;;;;;;;29.04;50.95;95004.63;5054744;28;20433;-89
2022/08/29 07:44:12;;;;;;;19.00;12.67;;;;;;;29.17;50.38;95008.91;5056069;28;20453;-87
2022/08/29 07:46:39;;;;;;;16.87;12.80;;;;;;;29.46;49.24;95005.13;5056168;28;20849;-89
2022/08/29 07:49:06;;;;;;;17.13;12.43;;;;;;;29.69;49.86;95000.63;5054013;28;20527;-86
2022/08/29 07:51:34;;;;;;;19.13;13.63;;;;;;;29.82;48.71;94998.41;5056374;28;20600;-88
2022/08/29 07:54:01;;;;;;;19.50;12.93;;;;;;;29.97;48.27;95003.22;5055977;28;20438;-89
2022/08/29 07:56:30;;;;;;;27.27;14.17;;;;;;;29.90;48.66;94999.88;5055114;28;20457;-89
2022/08/29 07:58:59;;;;;;;21.00;13.27;;;;;;;29.95;47.92;94999.94;5053808;28;20473;-89
2022/08/29 08:01:27;;;;;;;17.50;13.77;;;;;;;29.94;48.26;95000.19;5047804;28;20453;-89
2022/08/29 08:03:54;;;;;;;18.00;13.50;;;;;;;29.90;48.86;94995.28;5055806;28;20452;-89
2022/08/29 08:06:23;;;;;;;15.63;14.10;;;;;;;29.80;48.81;94997.03;5056315;28;20442;-90
2022/08/29 08:08:51;;;;;;;19.80;12.07;;;;;;;29.90;48.01;94989.06;5055623;28;20429;-91
2022/08/29 08:11:20;;;;;;;17.10;12.20;;;;;;;30.06;48.19;94999.06;5056591;28;20538;-89
2022/08/29 08:13:47;;;;;;;16.03;13.50;;;;;;;30.34;47.09;95002.69;5018563;28;20445;-89
2022/08/29 08:16:19;;;;;;;17.00;12.80;;;;;;;30.51;46.55;94995.34;5055914;28;20954;-90
2022/08/29 08:18:46;;;;;;;18.03;12.10;;;;;;;30.42;46.21;94999.56;5053276;28;20441;-92
2022/08/29 08:21:13;;;;;;;12.20;11.00;;;;;;;30.52;46.00;94995.09;5056279;28;20450;-88
2022/08/29 08:23:41;;;;;;;13.67;11.17;;;;;;;30.55;46.12;94993.78;5056456;28;20449;-89
2022/08/29 08:26:10;;;;;;;14.10;11.83;;;;;;;30.66;45.00;94992.06;5056561;28;20812;-89
2022/08/29 08:28:40;;;;;;;12.73;10.07;;;;;;;30.57;45.83;94983.50;5056830;28;20453;-90
2022/08/29 08:34:30;;;;;;;18.60;10.87;;;;;;;30.91;44.12;94988.78;5055824;28;20413;-88
2022/08/29 08:36:57;;;;;;;19.40;11.20;;;;;;;30.93;44.50;94992.06;5054524;28;20445;-90
2022/08/29 08:39:24;;;;;;;12.40;10.70;;;;;;;31.04;44.33;94986.50;5055374;28;20458;-89
2022/08/29 08:41:55;;;;;;;17.57;11.63;;;;;;;30.86;43.59;94986.03;5055133;28;20456;-88
2022/08/29 08:45:03;;;;;;;15.97;10.37;;;;;;;30.98;43.38;94984.00;5055371;28;20541;-90
2022/08/29 08:47:35;;;;;;;19.43;12.00;;;;;;;31.06;43.48;94981.66;5013241;28;20443;-91
2022/08/29 08:50:08;;;;;;;13.40;10.40;;;;;;;31.13;43.10;94976.03;5013295;28;20459;-90
2022/08/29 08:52:43;;;;;;;17.00;11.20;;;;;;;31.08;43.60;94979.50;5012597;28;20452;-89
2022/08/29 08:55:20;;;;;;;15.57;11.20;;;;;;;30.91;44.48;94972.53;5013046;28;20469;-89
2022/08/29 08:57:55;;;;;;;17.10;10.53;;;;;;;30.85;43.85;94968.13;5013345;28;20455;-89
2022/08/29 09:00:21;;;;;;;18.20;10.80;;;;;;;30.96;43.93;94967.19;5010002;28;20450;-88
2022/08/29 09:03:03;;;;;;;12.97;10.40;;;;;;;31.11;43.79;94973.56;5011778;28;20453;-89
2022/08/29 09:05:45;;;;;;;16.60;12.00;;;;;;;31.34;44.53;94971.66;5012587;28;20432;-87
2022/08/29 09:08:22;;;;;;;18.17;10.80;;;;;;;31.50;43.61;94959.84;5013079;28;20541;-89
2022/08/29 09:10:56;;;;;;;13.00;11.60;;;;;;;31.69;43.12;94968.41;5002607;28;20491;-89
2022/08/29 09:13:37;;;;;;;12.30;11.10;;;;;;;31.71;42.81;94958.97;5003758;28;20444;-88
2022/08/29 09:16:08;;;;;;;15.90;10.93;;;;;;;31.69;42.71;94952.94;5004275;28;20451;-89
2022/08/29 09:18:38;;;;;;;19.93;11.10;;;;;;;31.68;42.64;94956.75;5013353;28;20444;-90
2022/08/29 09:21:11;;;;;;;16.50;10.60;;;;;;;31.58;43.05;94953.13;5012539;28;20439;-90
2022/08/29 09:23:44;;;;;;;12.10;9.47;;;;;;;31.65;43.46;94951.00;5030731;28;20461;-89
2022/08/29 09:26:11;;;;;;;20.13;9.70;;;;;;;31.70;44.87;94948.34;5052718;28;20442;-88
2022/08/29 09:28:38;;;;;;;15.97;10.70;;;;;;;31.84;43.40;94946.03;5053391;28;20450;-90
2022/08/29 09:31:19;;;;;;;20.90;11.60;;;;;;;31.92;43.42;94951.78;5054158;28;20477;-89
2022/08/29 09:33:48;;;;;;;14.03;10.33;;;;;;;31.91;43.70;94947.44;5053738;28;20426;-90
2022/08/29 09:36:43;;;;;;;15.47;11.43;;;;;;;31.94;43.11;94943.38;5052505;28;20449;-89
2022/08/29 09:39:13;;;;;;;14.80;11.30;;;;;;;31.81;44.16;94941.94;5052853;28;20453;-89
2022/08/29 09:41:41;;;;;;;15.03;10.83;;;;;;;31.80;44.35;94934.84;5052908;28;20453;-90
2022/08/29 09:44:12;;;;;;;18.13;11.90;;;;;;;31.79;43.59;94925.06;5051437;28;20864;-90
2022/08/29 09:46:39;;;;;;;12.40;10.10;;;;;;;31.81;44.57;94928.38;5053064;28;20456;-89
2022/08/29 09:49:16;;;;;;;11.47;9.73;;;;;;;31.85;45.17;94929.47;5054332;28;20449;-90
2022/08/29 09:51:47;;;;;;;16.03;11.00;;;;;;;31.86;44.73;94920.25;5053852;28;20534;-90
2022/08/29 09:54:25;;;;;;;15.27;11.23;;;;;;;31.81;45.78;94911.28;5035402;28;20765;-86
2022/08/29 09:56:55;;;;;;;18.47;13.00;;;;;;;31.49;45.32;94913.97;5053726;28;20449;-86
2022/08/29 09:59:28;;;;;;;14.53;11.60;;;;;;;31.21;46.37;94913.22;5053609;28;20441;-86
2022/08/29 10:02:16;;;;;;;17.33;11.80;;;;;;;30.96;46.65;94916.50;5053186;28;20452;-86
2022/08/29 10:04:46;;;;;;;15.80;11.00;;;;;;;30.67;46.76;94917.84;5052295;28;20452;-87
2022/08/29 10:07:18;;;;;;;21.27;10.93;;;;;;;30.25;48.37;94912.16;5053309;28;20441;-86
2022/08/29 10:09:59;;;;;;;16.53;12.63;;;;;;;30.03;50.41;94918.34;5054046;28;20671;-86
2022/08/29 10:12:33;;;;;;;14.10;12.40;;;;;;;29.83;51.48;94912.66;5053300;28;20847;-87
2022/08/29 10:15:03;;;;;;;16.00;11.27;;;;;;;29.59;52.43;94901.22;5053429;28;20803;-85
2022/08/29 10:20:21;;;;;;;19.60;13.53;;;;;;;29.35;52.96;94897.84;5053317;28;20920;-91
2022/08/29 10:23:28;;;;;;;16.83;12.03;;;;;;;29.07;52.71;94892.50;5053182;28;21207;-88
2022/08/29 10:25:56;;;;;;;14.53;11.27;;;;;;;28.96;53.09;94892.34;5032992;28;20517;-83
2022/08/29 10:28:28;;;;;;;18.47;12.40;;;;;;;28.86;53.59;94897.56;5032622;28;20513;-84
2022/08/29 10:31:00;;;;;;;21.07;12.27;;;;;;;28.79;53.55;94901.44;5032892;28;20470;-84
2022/08/29 10:33:40;;;;;;;13.57;11.67;;;;;;;28.71;53.44;94889.16;5050765;28;20450;-84
2022/08/29 10:36:15;;;;;;;28.30;11.83;;;;;;;28.61;53.46;94889.78;5052626;28;20436;-84
2022/08/29 10:38:50;;;;;;;17.87;12.43;;;;;;;28.53;54.18;94892.06;5053207;28;20432;-84
2022/08/29 10:41:32;;;;;;;18.80;12.00;;;;;;;28.48;55.12;94894.66;5052835;28;20453;-84
2022/08/29 10:44:16;;;;;;;14.10;10.70;;;;;;;28.46;54.87;94886.81;5052827;28;20837;-84
2022/08/29 10:46:57;;;;;;;17.90;10.63;;;;;;;28.38;54.24;94896.13;5052851;28;20980;-84
2022/08/29 10:49:36;;;;;;;20.83;11.13;;;;;;;28.29;54.81;94894.84;5052720;28;20500;-84
2022/08/29 10:52:12;;;;;;;13.37;9.33;;;;;;;28.24;54.56;94897.44;5019298;28;20481;-84
2022/08/29 10:54:51;;;;;;;17.40;11.47;;;;;;;28.24;54.93;94900.16;5052282;28;20449;-83
2022/08/29 10:57:46;;;;;;;15.63;11.07;;;;;;;28.19;55.34;94893.78;5052516;28;20485;-84
2022/08/29 11:00:17;;;;;;;18.80;11.20;;;;;;;28.17;55.88;94896.75;5052556;28;20453;-84
2022/08/29 11:02:50;;;;;;;16.93;12.10;;;;;;;28.14;56.31;94888.31;5052412;28;20453;-84
2022/08/29 11:05:23;;;;;;;17.93;11.97;;;;;;;28.09;57.12;94878.22;5052657;28;20445;-84
2022/08/29 11:07:56;;;;;;;19.93;12.67;;;;;;;28.06;56.92;94876.84;5018448;28;20452;-84
2022/08/29 11:10:27;;;;;;;16.30;12.40;;;;;;;28.04;56.54;94876.22;5033697;28;20437;-84
2022/08/29 11:12:58;;;;;;;20.73;12.00;;;;;;;28.03;56.65;94871.06;5052375;28;20504;-84
2022/08/29 11:15:31;;;;;;;22.57;12.70;;;;;;;28.02;56.14;94869.44;5052494;28;20445;-83
2022/08/29 11:18:06;;;;;;;25.30;11.83;;;;;;;28.00;54.44;94866.16;5052450;28;20450;-83
2022/08/29 11:20:37;;;;;;;21.47;10.57;;;;;;;27.95;53.33;94860.66;5052049;28;20445;-83
2022/08/29 11:23:11;;;;;;;20.17;9.90;;;;;;;28.01;53.89;94862.41;5052151;28;20449;-83
2022/08/29 11:25:42;;;;;;;11.00;10.00;;;;;;;28.10;53.33;94860.97;5052294;28;20491;-83
2022/08/29 11:28:21;;;;;;;11.13;9.53;;;;;;;28.17;50.98;94861.66;5016718;28;20470;-83
2022/08/29 11:30:54;;;;;;;10.80;9.60;;;;;;;28.29;49.37;94859.75;5052051;28;20452;-83
2022/08/29 11:33:32;;;;;;;11.47;10.27;;;;;;;28.40;48.04;94860.78;5052171;28;20442;-83
2022/08/29 11:36:24;;;;;;;13.90;9.60;;;;;;;28.55;47.44;94849.44;5033363;28;20959;-83